Time;durP1;ratioP1;P1;durP2;ratioP2;P2;SDS_P1;SDS_P2;PMS_P1;PMS_P2;Temp;Humidity;BMP_temperature;BMP_pressure;BME280_temperature;BME280_humidity;BME280_pressure;Samples;Min_cycle;Max_cycle;Signal;HPM_P1;HPM_P2
2022/09/25 00:01:09;;;;;;;8.18;5.40;;;;;;;;;;4919252;29;20231;-63
2022/09/25 00:03:43;;;;;;;6.35;4.50;;;;;;;;;;4918906;29;20248;-63
2022/09/25 00:06:16;;;;;;;6.05;3.85;;;;;;;;;;4918655;29;20240;-65
2022/09/25 00:08:43;;;;;;;6.88;4.20;;;;;;;;;;4919397;29;20548;-63
2022/09/25 00:11:14;;;;;;;8.00;4.63;;;;;;;;;;4914996;29;20229;-64
2022/09/25 00:13:42;;;;;;;7.97;4.53;;;;;;;;;;4918609;29;20272;-64
2022/09/25 00:16:12;;;;;;;8.70;4.10;;;;;;;;;;4917810;29;20220;-63
2022/09/25 00:21:29;;;;;;;5.63;4.15;;;;;;;;;;4918257;29;20204;-64
2022/09/25 00:24:02;;;;;;;7.32;4.25;;;;;;;;;;4918858;29;20189;-64
2022/09/25 00:26:32;;;;;;;8.98;4.88;;;;;;;;;;4918548;29;20237;-64
2022/09/25 00:29:00;;;;;;;6.30;4.47;;;;;;;;;;4917962;29;20645;-63
2022/09/25 00:31:28;;;;;;;5.60;3.70;;;;;;;;;;4917031;29;20224;-64
2022/09/25 00:33:57;;;;;;;5.28;3.53;;;;;;;;;;4916870;29;20208;-64
2022/09/25 00:36:24;;;;;;;5.25;3.28;;;;;;;;;;4916639;29;20268;-64
2022/09/25 00:38:51;;;;;;;8.98;4.30;;;;;;;;;;4916868;29;20248;-64
2022/09/25 00:41:22;;;;;;;8.02;4.47;;;;;;;;;;4916526;29;20244;-63
2022/09/25 00:43:55;;;;;;;5.63;4.20;;;;;;;;;;4916649;29;20209;-64
2022/09/25 00:46:51;;;;;;;6.72;4.30;;;;;;;;;;4918600;29;20569;-63
2022/09/25 00:49:21;;;;;;;6.53;4.28;;;;;;;;;;4860763;29;20219;-63
2022/09/25 00:51:53;;;;;;;7.57;4.07;;;;;;;;;;4860639;29;20673;-63
2022/09/25 00:54:48;;;;;;;6.90;4.70;;;;;;;;;;4861241;29;20231;-63
2022/09/25 00:57:18;;;;;;;8.02;4.10;;;;;;;;;;4840505;29;20211;-63
2022/09/25 00:59:54;;;;;;;7.40;4.32;;;;;;;;;;4842355;29;20649;-63
2022/09/25 01:02:42;;;;;;;6.80;4.57;;;;;;;;;;4843054;29;20222;-63
2022/09/25 01:05:15;;;;;;;7.28;4.90;;;;;;;;;;4842380;29;20212;-63
2022/09/25 01:07:44;;;;;;;10.60;4.78;;;;;;;;;;4842210;29;20235;-64
2022/09/25 01:10:12;;;;;;;6.80;4.20;;;;;;;;;;4842536;29;20223;-63
2022/09/25 01:12:42;;;;;;;7.88;4.63;;;;;;;;;;4842059;29;20235;-64
2022/09/25 01:15:11;;;;;;;7.25;4.50;;;;;;;;;;4842386;29;20406;-64
2022/09/25 01:17:55;;;;;;;8.40;4.90;;;;;;;;;;4841923;29;20606;-64
2022/09/25 01:20:31;;;;;;;7.97;4.18;;;;;;;;;;4842056;29;20347;-64
2022/09/25 01:23:12;;;;;;;7.68;5.15;;;;;;;;;;4842218;29;20211;-63
2022/09/25 01:26:10;;;;;;;7.55;5.00;;;;;;;;;;4859495;29;20663;-63
2022/09/25 01:29:00;;;;;;;7.13;5.00;;;;;;;;;;4908782;29;20211;-63
2022/09/25 01:31:34;;;;;;;8.02;5.93;;;;;;;;;;4921732;29;20209;-63
2022/09/25 01:34:09;;;;;;;9.27;5.82;;;;;;;;;;4920630;29;20215;-64
2022/09/25 01:36:47;;;;;;;8.85;5.55;;;;;;;;;;4920511;29;20645;-65
2022/09/25 01:39:31;;;;;;;9.40;5.75;;;;;;;;;;4921654;29;20193;-63
2022/09/25 01:42:06;;;;;;;9.13;5.50;;;;;;;;;;4920796;29;20205;-64
2022/09/25 01:44:44;;;;;;;10.60;5.65;;;;;;;;;;4905211;29;20214;-63
2022/09/25 01:47:17;;;;;;;8.35;4.95;;;;;;;;;;4921581;29;20228;-63
2022/09/25 01:49:48;;;;;;;7.93;4.20;;;;;;;;;;4905236;29;20204;-63
2022/09/25 01:52:26;;;;;;;7.78;5.40;;;;;;;;;;4921126;29;20204;-64
2022/09/25 01:54:57;;;;;;;7.40;5.53;;;;;;;;;;4921076;29;20209;-63
2022/09/25 01:57:28;;;;;;;7.25;4.95;;;;;;;;;;4920816;29;20213;-63
2022/09/25 02:00:00;;;;;;;7.85;5.00;;;;;;;;;;4904797;29;20235;-63
2022/09/25 02:02:44;;;;;;;10.90;4.57;;;;;;;;;;4921839;29;20260;-63
2022/09/25 02:05:27;;;;;;;6.88;4.65;;;;;;;;;;4904764;29;20714;-64
2022/09/25 02:08:00;;;;;;;7.07;3.95;;;;;;;;;;4920793;29;20224;-64
2022/09/25 02:10:35;;;;;;;6.35;4.00;;;;;;;;;;4921019;29;20267;-63
2022/09/25 02:13:08;;;;;;;6.15;4.30;;;;;;;;;;4919887;29;21073;-63
2022/09/25 02:15:41;;;;;;;10.13;5.18;;;;;;;;;;4905088;29;20212;-64
2022/09/25 02:21:18;;;;;;;7.57;4.30;;;;;;;;;;4906966;29;20205;-63
2022/09/25 02:23:58;;;;;;;8.15;4.53;;;;;;;;;;4920466;29;20521;-63
2022/09/25 02:26:27;;;;;;;9.52;5.75;;;;;;;;;;4920879;29;20231;-64
2022/09/25 02:28:55;;;;;;;9.40;5.20;;;;;;;;;;4904286;29;20228;-63
2022/09/25 02:31:28;;;;;;;9.35;4.85;;;;;;;;;;4904036;29;20649;-63
2022/09/25 02:33:57;;;;;;;6.80;5.18;;;;;;;;;;4904450;29;20201;-64
2022/09/25 02:36:23;;;;;;;7.68;4.60;;;;;;;;;;4920279;29;20233;-63
2022/09/25 02:38:52;;;;;;;9.38;4.78;;;;;;;;;;4920089;29;20677;-63
2022/09/25 02:41:30;;;;;;;11.20;6.85;;;;;;;;;;4919499;29;20213;-63
2022/09/25 02:43:57;;;;;;;14.10;7.47;;;;;;;;;;4920316;29;20308;-64
2022/09/25 02:46:42;;;;;;;12.25;6.10;;;;;;;;;;4920207;29;20232;-63
2022/09/25 02:49:16;;;;;;;13.27;6.80;;;;;;;;;;4920707;29;20529;-63
2022/09/25 02:52:05;;;;;;;11.93;6.72;;;;;;;;;;4920040;29;20649;-64
2022/09/25 02:54:38;;;;;;;8.27;5.63;;;;;;;;;;4920118;29;20201;-63
2022/09/25 02:57:11;;;;;;;8.98;5.78;;;;;;;;;;4920238;29;20224;-63
2022/09/25 02:59:51;;;;;;;12.25;5.53;;;;;;;;;;4903695;29;20200;-63
2022/09/25 03:02:20;;;;;;;13.10;6.43;;;;;;;;;;4920232;29;20211;-63
2022/09/25 03:04:48;;;;;;;10.80;5.65;;;;;;;;;;4919403;29;20219;-63
2022/09/25 03:07:15;;;;;;;8.52;5.40;;;;;;;;;;4919541;29;20280;-63
2022/09/25 03:09:45;;;;;;;9.07;5.75;;;;;;;;;;4919939;29;20212;-63
2022/09/25 03:12:13;;;;;;;9.00;5.53;;;;;;;;;;4919292;29;20543;-64
2022/09/25 03:14:40;;;;;;;8.50;5.57;;;;;;;;;;4919480;29;20277;-63
2022/09/25 03:17:09;;;;;;;8.52;5.57;;;;;;;;;;4919724;29;20217;-63
2022/09/25 03:19:37;;;;;;;7.80;5.68;;;;;;;;;;4919504;29;20224;-63
2022/09/25 03:22:04;;;;;;;8.65;5.78;;;;;;;;;;4919715;29;20200;-64
2022/09/25 03:24:31;;;;;;;9.25;5.82;;;;;;;;;;4919620;29;20224;-64
2022/09/25 03:26:58;;;;;;;7.60;5.20;;;;;;;;;;4919724;29;20256;-63
2022/09/25 03:29:25;;;;;;;10.30;5.30;;;;;;;;;;4919101;29;20209;-63
2022/09/25 03:31:52;;;;;;;7.93;5.10;;;;;;;;;;4919585;29;20204;-65
2022/09/25 03:34:19;;;;;;;9.23;5.57;;;;;;;;;;4919281;29;20215;-63
2022/09/25 03:36:46;;;;;;;6.55;5.00;;;;;;;;;;4919299;29;20228;-63
2022/09/25 03:39:16;;;;;;;10.68;5.85;;;;;;;;;;4919124;29;20634;-63
2022/09/25 03:41:44;;;;;;;7.40;5.50;;;;;;;;;;4919597;29;20602;-63
2022/09/25 03:44:11;;;;;;;8.05;4.88;;;;;;;;;;4919271;29;20221;-64
2022/09/25 03:46:38;;;;;;;8.82;5.18;;;;;;;;;;4919026;29;20561;-63
2022/09/25 03:49:07;;;;;;;8.70;4.80;;;;;;;;;;4919285;29;20201;-64
2022/09/25 03:51:34;;;;;;;8.30;4.95;;;;;;;;;;4918966;29;20669;-63
2022/09/25 03:54:02;;;;;;;7.28;5.03;;;;;;;;;;4918721;29;20289;-64
2022/09/25 03:56:31;;;;;;;6.88;5.15;;;;;;;;;;4918898;29;20209;-64
2022/09/25 03:58:58;;;;;;;6.43;4.97;;;;;;;;;;4918621;29;20280;-63
2022/09/25 04:01:26;;;;;;;7.32;5.00;;;;;;;;;;4918881;29;20232;-63
2022/09/25 04:03:54;;;;;;;10.48;5.32;;;;;;;;;;4918755;29;20212;-64
2022/09/25 04:06:23;;;;;;;5.55;4.22;;;;;;;;;;4915965;29;20215;-66
2022/09/25 04:08:51;;;;;;;7.15;4.32;;;;;;;;;;4918017;29;20212;-63
2022/09/25 04:11:20;;;;;;;6.68;4.60;;;;;;;;;;4918207;29;20689;-63
2022/09/25 04:13:47;;;;;;;6.57;4.88;;;;;;;;;;4918033;29;20219;-64
2022/09/25 04:16:15;;;;;;;7.97;4.93;;;;;;;;;;4918581;29;20204;-63
2022/09/25 04:18:43;;;;;;;5.68;4.47;;;;;;;;;;4918087;29;20271;-63
2022/09/25 04:21:11;;;;;;;11.90;5.10;;;;;;;;;;4918549;29;20219;-65
2022/09/25 04:23:39;;;;;;;7.97;4.35;;;;;;;;;;4918158;29;20244;-64
2022/09/25 04:26:06;;;;;;;8.27;4.90;;;;;;;;;;4918112;29;20209;-64
2022/09/25 04:28:34;;;;;;;6.00;4.40;;;;;;;;;;4917905;29;20232;-64
2022/09/25 04:31:02;;;;;;;6.05;4.28;;;;;;;;;;4918781;29;20276;-64
2022/09/25 04:33:45;;;;;;;5.05;4.07;;;;;;;;;;4918055;29;20232;-64
2022/09/25 04:36:14;;;;;;;7.45;4.65;;;;;;;;;;4918304;29;20220;-64
2022/09/25 04:38:41;;;;;;;6.07;4.32;;;;;;;;;;4917849;29;20308;-64
2022/09/25 04:41:08;;;;;;;5.90;4.35;;;;;;;;;;4918361;29;20275;-64
2022/09/25 04:43:35;;;;;;;6.28;3.83;;;;;;;;;;4918112;29;20638;-64
2022/09/25 04:46:04;;;;;;;7.70;4.10;;;;;;;;;;4918292;29;20268;-63
2022/09/25 04:48:31;;;;;;;6.35;4.28;;;;;;;;;;4918076;29;20335;-64
2022/09/25 04:50:59;;;;;;;7.35;4.47;;;;;;;;;;4918133;29;20213;-63
2022/09/25 04:53:28;;;;;;;4.85;4.00;;;;;;;;;;4918106;29;20280;-63
2022/09/25 04:56:00;;;;;;;6.78;4.20;;;;;;;;;;4918464;29;20227;-63
2022/09/25 04:58:27;;;;;;;5.50;4.20;;;;;;;;;;4918673;29;20208;-64
2022/09/25 05:00:54;;;;;;;6.78;4.53;;;;;;;;;;4918495;29;20205;-63
2022/09/25 05:03:21;;;;;;;6.97;5.13;;;;;;;;;;4922078;29;20205;-63
2022/09/25 05:05:49;;;;;;;7.75;4.90;;;;;;;;;;4921977;29;20295;-63
2022/09/25 05:08:16;;;;;;;7.68;5.35;;;;;;;;;;4922037;29;20276;-63
2022/09/25 05:10:43;;;;;;;6.95;5.10;;;;;;;;;;4922091;29;20271;-64
2022/09/25 05:13:11;;;;;;;10.27;5.80;;;;;;;;;;4921947;29;20224;-63
2022/09/25 05:15:38;;;;;;;7.00;5.20;;;;;;;;;;4921720;29;20208;-64
2022/09/25 05:18:08;;;;;;;9.52;6.38;;;;;;;;;;4921893;29;20268;-64
2022/09/25 05:20:35;;;;;;;9.27;6.22;;;;;;;;;;4905840;29;20200;-64
2022/09/25 05:23:03;;;;;;;11.00;6.68;;;;;;;;;;4921929;29;20208;-64
2022/09/25 05:25:30;;;;;;;9.00;6.57;;;;;;;;;;4921978;29;20264;-63
2022/09/25 05:27:59;;;;;;;11.93;6.60;;;;;;;;;;4921476;29;20272;-63
2022/09/25 05:30:28;;;;;;;10.35;6.97;;;;;;;;;;4921749;29;20264;-63
2022/09/25 05:32:57;;;;;;;9.65;7.00;;;;;;;;;;4921621;29;20205;-64
2022/09/25 05:35:30;;;;;;;9.45;6.57;;;;;;;;;;4926131;29;20278;-64
2022/09/25 05:37:57;;;;;;;10.40;6.63;;;;;;;;;;4928116;29;20692;-64
2022/09/25 05:40:25;;;;;;;11.25;6.63;;;;;;;;;;4931346;29;20204;-65
2022/09/25 05:42:54;;;;;;;9.18;6.22;;;;;;;;;;4933259;29;20197;-65
2022/09/25 05:45:23;;;;;;;10.55;6.43;;;;;;;;;;4924577;29;20229;-65
2022/09/25 05:48:04;;;;;;;15.07;7.25;;;;;;;;;;4919092;29;20472;-64
2022/09/25 05:50:32;;;;;;;9.95;6.60;;;;;;;;;;4921148;29;20189;-64
2022/09/25 05:53:01;;;;;;;9.63;6.50;;;;;;;;;;4926926;29;20276;-65
2022/09/25 05:55:28;;;;;;;9.60;7.20;;;;;;;;;;4928041;29;20297;-64
2022/09/25 05:58:02;;;;;;;11.68;7.05;;;;;;;;;;4925446;29;20657;-66
2022/09/25 06:00:34;;;;;;;9.55;6.72;;;;;;;;;;4916446;29;20256;-65
2022/09/25 06:03:01;;;;;;;10.07;6.90;;;;;;;;;;4916134;29;20220;-65
2022/09/25 06:05:29;;;;;;;9.43;6.93;;;;;;;;;;4917699;29;20228;-65
2022/09/25 06:07:55;;;;;;;11.13;7.18;;;;;;;;;;4920305;29;20563;-65
2022/09/25 06:10:26;;;;;;;11.20;7.53;;;;;;;;;;4908433;29;20538;-66
2022/09/25 06:12:57;;;;;;;15.02;10.05;;;;;;;;;;4919613;29;20323;-66
2022/09/25 06:15:26;;;;;;;12.45;9.00;;;;;;;;;;4918626;29;20307;-66
2022/09/25 06:17:57;;;;;;;14.98;9.30;;;;;;;;;;4918151;29;20363;-65
2022/09/25 06:20:24;;;;;;;12.15;8.77;;;;;;;;;;4917822;29;20229;-67
2022/09/25 06:22:55;;;;;;;11.57;8.40;;;;;;;;;;4915958;29;20545;-66
2022/09/25 06:25:24;;;;;;;13.45;8.35;;;;;;;;;;4921946;29;20224;-66
2022/09/25 06:27:53;;;;;;;13.55;8.63;;;;;;;;;;4930900;29;20236;-66
2022/09/25 06:30:21;;;;;;;14.73;8.57;;;;;;;;;;4924842;29;20224;-66
2022/09/25 06:32:49;;;;;;;10.60;7.85;;;;;;;;;;4917791;29;20236;-66
2022/09/25 06:35:17;;;;;;;12.18;8.32;;;;;;;;;;4904319;29;20228;-66
2022/09/25 06:37:44;;;;;;;12.63;8.07;;;;;;;;;;4919404;29;20254;-66
2022/09/25 06:40:10;;;;;;;12.40;8.27;;;;;;;;;;4924572;29;20216;-65
2022/09/25 06:42:38;;;;;;;13.15;7.90;;;;;;;;;;4926382;29;20534;-65
2022/09/25 06:45:05;;;;;;;12.98;7.85;;;;;;;;;;4919411;29;20224;-66
2022/09/25 06:47:32;;;;;;;12.77;8.00;;;;;;;;;;4923670;29;20285;-66
2022/09/25 06:49:59;;;;;;;13.35;7.55;;;;;;;;;;4922049;29;20575;-66
2022/09/25 06:52:26;;;;;;;10.75;8.05;;;;;;;;;;4924586;29;20224;-66
2022/09/25 06:54:53;;;;;;;10.23;7.15;;;;;;;;;;4924327;29;20248;-66
2022/09/25 06:57:20;;;;;;;13.63;7.45;;;;;;;;;;4923015;29;20244;-66
2022/09/25 06:59:47;;;;;;;10.57;7.47;;;;;;;;;;4923818;29;20311;-66
2022/09/25 07:05:00;;;;;;;13.77;8.27;;;;;;;;;;4920170;29;20224;-65
2022/09/25 07:07:27;;;;;;;13.98;9.18;;;;;;;;;;4916856;29;20232;-65
2022/09/25 07:09:54;;;;;;;15.98;10.57;;;;;;;;;;4917254;29;20221;-66
2022/09/25 07:12:21;;;;;;;12.48;8.25;;;;;;;;;;4916890;29;20224;-65
2022/09/25 07:14:48;;;;;;;11.13;8.38;;;;;;;;;;4923665;29;20228;-66
2022/09/25 07:17:15;;;;;;;11.02;7.95;;;;;;;;;;4917713;29;20244;-65
2022/09/25 07:19:42;;;;;;;9.90;7.93;;;;;;;;;;4926568;29;20231;-65
2022/09/25 07:22:10;;;;;;;10.85;7.88;;;;;;;;;;4929367;29;20575;-61
2022/09/25 07:24:37;;;;;;;11.10;7.57;;;;;;;;;;4926977;29;20228;-64
2022/09/25 07:27:05;;;;;;;11.32;8.40;;;;;;;;;;4919868;29;20227;-65
2022/09/25 07:29:34;;;;;;;10.55;8.38;;;;;;;;;;4917064;29;20690;-65
2022/09/25 07:32:01;;;;;;;15.40;8.48;;;;;;;;;;4928394;29;20318;-65
2022/09/25 07:34:29;;;;;;;13.15;8.20;;;;;;;;;;4925281;29;20220;-64
2022/09/25 07:36:56;;;;;;;10.57;7.97;;;;;;;;;;4926481;29;20666;-63
2022/09/25 07:39:23;;;;;;;11.18;8.45;;;;;;;;;;4921086;29;20435;-63
2022/09/25 07:41:53;;;;;;;10.80;8.25;;;;;;;;;;4927143;29;20211;-63
2022/09/25 07:44:20;;;;;;;10.70;8.07;;;;;;;;;;4928497;29;20581;-63
2022/09/25 07:46:58;;;;;;;11.05;8.38;;;;;;;;;;4927420;29;20211;-63
2022/09/25 07:49:25;;;;;;;10.82;7.95;;;;;;;;;;4924019;29;20221;-63
2022/09/25 07:51:52;;;;;;;12.40;7.70;;;;;;;;;;4926184;29;20208;-63
2022/09/25 07:54:19;;;;;;;10.18;7.97;;;;;;;;;;4919739;29;20208;-63
2022/09/25 07:56:45;;;;;;;10.90;7.60;;;;;;;;;;4919147;29;20615;-63
2022/09/25 07:59:12;;;;;;;11.63;7.60;;;;;;;;;;4886687;29;20217;-63
2022/09/25 08:01:39;;;;;;;11.82;8.13;;;;;;;;;;4918975;29;20205;-63
2022/09/25 08:04:11;;;;;;;14.13;8.43;;;;;;;;;;4919161;29;20605;-63
2022/09/25 08:06:39;;;;;;;13.43;8.40;;;;;;;;;;4919340;29;20209;-63
2022/09/25 08:09:06;;;;;;;11.95;8.13;;;;;;;;;;4919290;29;20300;-65
2022/09/25 08:11:37;;;;;;;10.35;7.50;;;;;;;;;;4918690;29;20638;-63
2022/09/25 08:14:04;;;;;;;10.98;7.97;;;;;;;;;;4918839;29;20536;-64
2022/09/25 08:16:31;;;;;;;11.73;8.13;;;;;;;;;;4918929;29;20205;-63
2022/09/25 08:18:58;;;;;;;12.35;8.63;;;;;;;;;;4918787;29;20208;-63
2022/09/25 08:21:25;;;;;;;13.13;8.00;;;;;;;;;;4913218;29;20284;-63
2022/09/25 08:23:54;;;;;;;9.80;7.05;;;;;;;;;;4918460;29;20520;-64
2022/09/25 08:26:21;;;;;;;7.90;6.13;;;;;;;;;;4918755;29;20307;-63
2022/09/25 08:28:49;;;;;;;7.53;5.63;;;;;;;;;;4918287;29;20295;-63
2022/09/25 08:31:17;;;;;;;7.25;4.97;;;;;;;;;;4918512;29;20664;-63
2022/09/25 08:33:48;;;;;;;6.82;5.15;;;;;;;;;;4918423;29;20204;-63
2022/09/25 08:36:16;;;;;;;7.53;5.00;;;;;;;;;;4918811;29;20220;-63
2022/09/25 08:38:44;;;;;;;7.90;4.90;;;;;;;;;;4906037;29;20696;-63
2022/09/25 08:41:22;;;;;;;7.80;4.93;;;;;;;;;;4922368;29;20208;-64
2022/09/25 08:44:00;;;;;;;6.40;4.75;;;;;;;;;;4906355;29;20219;-63
2022/09/25 08:49:28;;;;;;;6.30;4.57;;;;;;;;;;4922007;29;20559;-63
2022/09/25 08:52:01;;;;;;;5.00;3.78;;;;;;;;;;4920930;29;20659;-63
2022/09/25 08:54:30;;;;;;;6.32;4.32;;;;;;;;;;4904763;29;20205;-63
2022/09/25 08:57:02;;;;;;;5.40;4.13;;;;;;;;;;4921330;29;20216;-63
2022/09/25 08:59:37;;;;;;;5.85;4.57;;;;;;;;;;4921632;29;20215;-63
2022/09/25 09:02:16;;;;;;;5.03;3.83;;;;;;;;;;4921535;29;20212;-64
2022/09/25 09:04:50;;;;;;;6.28;4.53;;;;;;;;;;4921510;29;20275;-64
2022/09/25 09:07:34;;;;;;;5.05;4.25;;;;;;;;;;4905548;29;20537;-63
2022/09/25 09:10:35;;;;;;;5.95;3.88;;;;;;;;;;4921722;29;20196;-64
2022/09/25 09:13:23;;;;;;;4.97;3.90;;;;;;;;;;4920029;29;20528;-63
2022/09/25 09:16:01;;;;;;;5.75;4.07;;;;;;;;;;4918228;29;20237;-65
2022/09/25 09:18:29;;;;;;;6.95;3.83;;;;;;;;;;4920254;29;20614;-64
2022/09/25 09:21:11;;;;;;;8.18;4.32;;;;;;;;;;4917562;29;20215;-64
2022/09/25 09:24:04;;;;;;;5.35;4.25;;;;;;;;;;4925345;29;20202;-61
2022/09/25 09:26:38;;;;;;;5.10;3.50;;;;;;;;;;4926392;29;20236;-61
2022/09/25 09:29:33;;;;;;;5.60;4.18;;;;;;;;;;4921717;29;20674;-62
2022/09/25 09:32:31;;;;;;;5.32;4.28;;;;;;;;;;4891828;29;20351;-63
2022/09/25 09:35:33;;;;;;;5.70;4.22;;;;;;;;;;4924219;29;20694;-62
2022/09/25 09:38:06;;;;;;;5.93;4.72;;;;;;;;;;4929618;29;20243;-61
2022/09/25 09:41:01;;;;;;;6.75;4.78;;;;;;;;;;4928930;29;20228;-61
2022/09/25 09:43:37;;;;;;;8.15;4.38;;;;;;;;;;4928528;29;20555;-63
2022/09/25 09:46:12;;;;;;;5.28;4.10;;;;;;;;;;4916223;29;20987;-62
2022/09/25 09:49:01;;;;;;;7.82;4.35;;;;;;;;;;4925696;29;20236;-62
2022/09/25 09:51:36;;;;;;;5.75;4.65;;;;;;;;;;4927058;29;20686;-62
2022/09/25 09:54:10;;;;;;;6.00;4.10;;;;;;;;;;4911565;29;20228;-62
2022/09/25 09:56:40;;;;;;;5.22;3.75;;;;;;;;;;4928137;29;20217;-61
2022/09/25 09:59:38;;;;;;;6.97;4.60;;;;;;;;;;4924973;29;20219;-62
2022/09/25 10:02:15;;;;;;;5.50;4.03;;;;;;;;;;4918645;29;20231;-62
2022/09/25 10:04:44;;;;;;;5.65;4.18;;;;;;;;;;4925999;29;20238;-61
2022/09/25 10:07:17;;;;;;;6.10;4.40;;;;;;;;;;4927337;29;20225;-61
2022/09/25 10:09:45;;;;;;;5.57;4.05;;;;;;;;;;4926136;29;20306;-61
2022/09/25 10:12:20;;;;;;;9.00;4.10;;;;;;;;;;4910694;29;20231;-62
2022/09/25 10:14:47;;;;;;;6.13;4.40;;;;;;;;;;4925412;29;20278;-63
2022/09/25 10:17:14;;;;;;;5.32;4.32;;;;;;;;;;4927006;29;20224;-64
2022/09/25 10:19:51;;;;;;;6.60;4.88;;;;;;;;;;4910752;29;20561;-62
2022/09/25 10:22:25;;;;;;;6.63;4.95;;;;;;;;;;4928400;29;20231;-63
2022/09/25 10:24:52;;;;;;;6.30;4.57;;;;;;;;;;4921092;29;20223;-63
2022/09/25 10:27:28;;;;;;;7.15;5.45;;;;;;;;;;4927371;29;20272;-63
2022/09/25 10:30:09;;;;;;;7.43;5.70;;;;;;;;;;4929221;29;20240;-61
2022/09/25 10:32:50;;;;;;;6.35;5.40;;;;;;;;;;4919107;29;20599;-60
2022/09/25 10:35:29;;;;;;;8.90;5.15;;;;;;;;;;4919224;29;20316;-62
2022/09/25 10:37:59;;;;;;;6.47;5.22;;;;;;;;;;4930315;29;20235;-61
2022/09/25 10:40:34;;;;;;;8.07;6.05;;;;;;;;;;4926234;29;20228;-61
2022/09/25 10:43:19;;;;;;;8.02;5.38;;;;;;;;;;4925243;29;20220;-60
2022/09/25 10:45:52;;;;;;;6.28;5.05;;;;;;;;;;4925773;29;20219;-61
2022/09/25 10:51:19;;;;;;;6.65;4.78;;;;;;;;;;4926442;29;20227;-60
2022/09/25 10:53:48;;;;;;;6.57;5.22;;;;;;;;;;4910902;29;20228;-60
2022/09/25 10:56:41;;;;;;;7.38;4.97;;;;;;;;;;4916163;29;20252;-60
2022/09/25 10:59:16;;;;;;;7.40;5.40;;;;;;;;;;4916618;29;20322;-60
2022/09/25 11:01:43;;;;;;;6.90;4.70;;;;;;;;;;4918050;29;20244;-60
2022/09/25 11:04:29;;;;;;;7.85;5.55;;;;;;;;;;4924372;29;20377;-61
2022/09/25 11:07:03;;;;;;;7.85;5.47;;;;;;;;;;4911223;29;20341;-61
2022/09/25 11:09:32;;;;;;;8.60;5.40;;;;;;;;;;4929049;29;20664;-62
2022/09/25 11:12:14;;;;;;;6.07;4.65;;;;;;;;;;4902012;29;20227;-61
2022/09/25 11:14:54;;;;;;;4.97;3.88;;;;;;;;;;4912540;29;20284;-62
2022/09/25 11:17:41;;;;;;;7.07;4.63;;;;;;;;;;4901496;29;20240;-61
2022/09/25 11:20:26;;;;;;;8.30;4.65;;;;;;;;;;4915078;29;20236;-61
2022/09/25 11:23:14;;;;;;;8.43;4.43;;;;;;;;;;4916304;29;20223;-61
2022/09/25 11:25:47;;;;;;;6.85;5.25;;;;;;;;;;4918964;29;20252;-63
2022/09/25 11:29:01;;;;;;;6.78;4.03;;;;;;;;;;4893099;29;20264;-62
2022/09/25 11:31:36;;;;;;;5.63;3.50;;;;;;;;;;4866412;29;20233;-62
2022/09/25 11:34:16;;;;;;;8.30;3.78;;;;;;;;;;4897082;29;20231;-62
2022/09/25 11:36:58;;;;;;;8.40;3.75;;;;;;;;;;4916545;29;20677;-61
2022/09/25 11:42:29;;;;;;;5.88;3.88;;;;;;;;;;4889829;29;20240;-61
2022/09/25 11:45:19;;;;;;;6.28;3.95;;;;;;;;;;4921757;29;20226;-61
2022/09/25 11:47:57;;;;;;;6.60;4.07;;;;;;;;;;4920395;29;20256;-61
2022/09/25 11:50:37;;;;;;;6.93;4.47;;;;;;;;;;4914387;29;20305;-61
2022/09/25 11:53:33;;;;;;;5.85;3.47;;;;;;;;;;4900002;29;20287;-61
2022/09/25 11:56:21;;;;;;;5.93;3.88;;;;;;;;;;4901514;29;20284;-61
2022/09/25 11:59:04;;;;;;;7.05;3.90;;;;;;;;;;4920395;29;20539;-61
2022/09/25 12:01:40;;;;;;;7.38;4.15;;;;;;;;;;4919092;29;20236;-61
2022/09/25 12:04:26;;;;;;;4.38;3.78;;;;;;;;;;4909543;29;20217;-60
2022/09/25 12:06:59;;;;;;;9.43;4.20;;;;;;;;;;4924879;29;20220;-61
2022/09/25 12:09:42;;;;;;;5.20;4.03;;;;;;;;;;4926158;29;20232;-61
2022/09/25 12:12:34;;;;;;;7.63;5.90;;;;;;;;;;4933886;29;20290;-61
2022/09/25 12:15:22;;;;;;;9.32;4.78;;;;;;;;;;4932893;29;20213;-61
2022/09/25 12:17:58;;;;;;;7.40;5.20;;;;;;;;;;4926653;29;20271;-62
2022/09/25 12:20:47;;;;;;;8.10;5.60;;;;;;;;;;4909478;29;20224;-62
2022/09/25 12:23:32;;;;;;;7.07;5.22;;;;;;;;;;4925749;29;20223;-63
2022/09/25 12:26:17;;;;;;;8.45;5.20;;;;;;;;;;4922652;29;20224;-61
2022/09/25 12:29:24;;;;;;;7.28;4.60;;;;;;;;;;4928080;29;20539;-60
2022/09/25 12:32:03;;;;;;;11.15;5.30;;;;;;;;;;4935898;29;20563;-60
2022/09/25 12:34:49;;;;;;;7.70;5.05;;;;;;;;;;4936770;29;20306;-62
2022/09/25 12:37:29;;;;;;;6.88;5.00;;;;;;;;;;4925634;29;20267;-61
2022/09/25 12:40:02;;;;;;;8.15;5.50;;;;;;;;;;4924843;29;20216;-61
2022/09/25 12:43:03;;;;;;;7.25;4.82;;;;;;;;;;4925140;29;20239;-62
2022/09/25 12:45:38;;;;;;;8.35;5.22;;;;;;;;;;4923134;29;20227;-61
2022/09/25 12:48:36;;;;;;;6.78;5.18;;;;;;;;;;4922976;29;20538;-61
2022/09/25 12:51:24;;;;;;;8.38;5.78;;;;;;;;;;4924401;29;20537;-61
2022/09/25 12:53:56;;;;;;;7.00;5.53;;;;;;;;;;4926135;29;20231;-60
2022/09/25 12:56:32;;;;;;;7.07;5.57;;;;;;;;;;4917823;29;20240;-62
2022/09/25 12:59:31;;;;;;;6.53;5.13;;;;;;;;;;4936220;29;20228;-61
2022/09/25 13:02:22;;;;;;;6.68;5.53;;;;;;;;;;4931304;29;20236;-61
2022/09/25 13:04:52;;;;;;;8.63;5.78;;;;;;;;;;4936115;29;20232;-60
2022/09/25 13:07:26;;;;;;;10.77;6.30;;;;;;;;;;4936169;29;20732;-61
2022/09/25 13:09:53;;;;;;;7.95;6.18;;;;;;;;;;4935687;29;20240;-61
2022/09/25 13:12:32;;;;;;;8.68;5.45;;;;;;;;;;4935948;29;20240;-60
2022/09/25 13:15:17;;;;;;;8.73;5.80;;;;;;;;;;4935757;29;20235;-61
2022/09/25 13:17:45;;;;;;;7.82;6.22;;;;;;;;;;4936069;29;20238;-59
2022/09/25 13:20:27;;;;;;;7.88;5.78;;;;;;;;;;4935959;29;20234;-60
2022/09/25 13:23:02;;;;;;;7.68;6.10;;;;;;;;;;4931770;29;20262;-59
2022/09/25 13:25:30;;;;;;;10.20;6.10;;;;;;;;;;4903959;29;20250;-60
2022/09/25 13:28:06;;;;;;;7.78;5.63;;;;;;;;;;4904072;29;20239;-60
2022/09/25 13:30:33;;;;;;;9.10;6.28;;;;;;;;;;4920409;29;20244;-61
2022/09/25 13:33:01;;;;;;;9.18;6.18;;;;;;;;;;4920271;29;20753;-60
2022/09/25 13:35:30;;;;;;;7.60;6.22;;;;;;;;;;4921584;29;20236;-61
2022/09/25 13:40:41;;;;;;;10.98;6.70;;;;;;;;;;4916749;29;20243;-61
2022/09/25 13:41:12;;;;;;;8.45;6.18;;;;;;;;;;4924988;29;20221;-61
2022/09/25 13:43:39;;;;;;;11.13;6.18;;;;;;;;;;4908019;29;20318;-61
2022/09/25 13:46:16;;;;;;;9.07;6.50;;;;;;;;;;4926309;29;20224;-61
2022/09/25 13:48:44;;;;;;;8.75;6.07;;;;;;;;;;4924257;29;20718;-61
2022/09/25 13:51:19;;;;;;;9.32;6.20;;;;;;;;;;4926734;29;20228;-61
2022/09/25 13:53:58;;;;;;;7.85;6.10;;;;;;;;;;4926615;29;20216;-61
2022/09/25 13:56:41;;;;;;;8.27;6.13;;;;;;;;;;4910638;29;20275;-61
2022/09/25 13:59:11;;;;;;;9.20;6.60;;;;;;;;;;4926391;29;20291;-61
2022/09/25 14:01:49;;;;;;;8.75;5.90;;;;;;;;;;4924818;29;20236;-61
2022/09/25 14:04:28;;;;;;;11.27;6.55;;;;;;;;;;4926420;29;20229;-61
2022/09/25 14:07:04;;;;;;;10.73;7.10;;;;;;;;;;4925716;29;20239;-61
2022/09/25 14:09:32;;;;;;;8.68;6.55;;;;;;;;;;4905978;29;20259;-62
2022/09/25 14:12:05;;;;;;;8.23;6.60;;;;;;;;;;4909552;29;20252;-62
2022/09/25 14:14:41;;;;;;;8.85;6.63;;;;;;;;;;4906749;29;20229;-61
2022/09/25 14:17:14;;;;;;;11.57;6.85;;;;;;;;;;4906057;29;20283;-61
2022/09/25 14:19:44;;;;;;;10.27;7.68;;;;;;;;;;4923810;29;20228;-61
2022/09/25 14:22:38;;;;;;;10.10;7.20;;;;;;;;;;4926125;29;20291;-61
2022/09/25 14:25:27;;;;;;;10.20;6.88;;;;;;;;;;4925129;29;20240;-62
2022/09/25 14:27:54;;;;;;;8.95;6.75;;;;;;;;;;4925873;29;20235;-61
2022/09/25 14:30:27;;;;;;;12.75;7.63;;;;;;;;;;4928003;29;20243;-62
2022/09/25 14:33:17;;;;;;;11.68;7.57;;;;;;;;;;4927332;29;20227;-61
2022/09/25 14:36:21;;;;;;;11.25;7.45;;;;;;;;;;4925781;29;20279;-61
2022/09/25 14:39:05;;;;;;;10.95;7.88;;;;;;;;;;4924868;29;20247;-62
2022/09/25 14:41:32;;;;;;;11.25;7.78;;;;;;;;;;4925437;29;20231;-61
2022/09/25 14:44:22;;;;;;;16.92;7.68;;;;;;;;;;4925497;29;20256;-61
2022/09/25 14:46:50;;;;;;;8.30;6.85;;;;;;;;;;4923161;29;20621;-61
2022/09/25 14:49:30;;;;;;;10.05;7.35;;;;;;;;;;4910620;29;20224;-62
2022/09/25 14:52:03;;;;;;;12.00;7.40;;;;;;;;;;4925162;29;20228;-61
2022/09/25 14:54:36;;;;;;;10.57;6.85;;;;;;;;;;4923365;29;20311;-61
2022/09/25 14:57:05;;;;;;;13.23;7.10;;;;;;;;;;4910351;29;20663;-61
2022/09/25 14:59:54;;;;;;;8.48;7.00;;;;;;;;;;4923834;29;20224;-62
2022/09/25 15:02:23;;;;;;;9.70;7.05;;;;;;;;;;4927847;29;20239;-62
2022/09/25 15:04:56;;;;;;;8.98;6.78;;;;;;;;;;4908022;29;20697;-61
2022/09/25 15:07:26;;;;;;;11.20;7.85;;;;;;;;;;4925986;29;21086;-61
2022/09/25 15:09:54;;;;;;;11.02;7.25;;;;;;;;;;4924834;29;20240;-61
2022/09/25 15:12:28;;;;;;;10.90;8.30;;;;;;;;;;4925175;29;20220;-63
2022/09/25 15:15:01;;;;;;;13.90;9.73;;;;;;;;;;4925129;29;20244;-61
2022/09/25 15:17:30;;;;;;;11.18;8.05;;;;;;;;;;4923108;29;20272;-62
2022/09/25 15:20:00;;;;;;;13.40;9.40;;;;;;;;;;4907637;29;20228;-61
2022/09/25 15:22:31;;;;;;;13.75;9.25;;;;;;;;;;4920734;29;20220;-62
2022/09/25 15:25:00;;;;;;;11.40;8.90;;;;;;;;;;4923285;29;21009;-61
2022/09/25 15:27:27;;;;;;;9.85;8.05;;;;;;;;;;4906729;29;20223;-61
2022/09/25 15:29:55;;;;;;;10.48;7.85;;;;;;;;;;4922018;29;20225;-61
2022/09/25 15:32:38;;;;;;;12.85;9.38;;;;;;;;;;4925348;29;20231;-63
2022/09/25 15:35:10;;;;;;;11.30;8.82;;;;;;;;;;4922161;29;20349;-60